createdAt,value
2022-08-22T00:01:00.658Z,19.70
2022-08-22T00:02:42.776Z,22.50
2022-08-22T00:02:57.377Z,19.60
2022-08-22T00:03:03.566Z,21.80
2022-08-22T00:03:42.602Z,18.20
2022-08-22T00:06:19.134Z,19.70
2022-08-22T00:08:58.510Z,19.60
2022-08-22T00:11:37.394Z,19.60
2022-08-22T00:14:15.782Z,24.60
2022-08-22T00:16:54.728Z,18.00
2022-08-22T00:19:31.547Z,18.50
2022-08-22T00:22:04.468Z,19.60
2022-08-22T00:24:40.527Z,18.60
2022-08-22T00:27:14.394Z,19.60
2022-08-22T00:29:45.863Z,19.60
2022-08-22T00:32:21.492Z,19.60
2022-08-22T00:34:58.364Z,17.20
2022-08-22T00:37:31.591Z,17.10
2022-08-22T00:40:10.466Z,17.90
2022-08-22T00:43:09.208Z,18.60
2022-08-22T00:46:09.570Z,19.40
2022-08-22T00:49:03.446Z,16.80
2022-08-22T00:52:08.986Z,16.80
2022-08-22T00:55:00.521Z,16.90
2022-08-22T00:57:44.648Z,17.20
2022-08-22T01:00:18.220Z,19.20
2022-08-22T01:03:08.856Z,16.90
2022-08-22T01:05:54.153Z,19.20
2022-08-22T01:08:38.142Z,19.10
2022-08-22T01:11:25.046Z,19.10
2022-08-22T01:14:09.779Z,18.20
2022-08-22T01:17:01.292Z,19.10
2022-08-22T01:20:13.767Z,19.10
2022-08-22T01:23:19.583Z,19.10
2022-08-22T01:26:19.883Z,24.10
2022-08-22T01:29:27.707Z,18.90
2022-08-22T01:32:42.200Z,16.10
2022-08-22T01:35:29.641Z,18.70
2022-08-22T01:38:27.102Z,16.70
2022-08-22T01:41:18.647Z,18.60
2022-08-22T01:44:15.348Z,18.50
2022-08-22T01:46:58.899Z,18.50
2022-08-22T01:49:33.118Z,18.10
2022-08-22T01:52:07.827Z,18.50
2022-08-22T01:54:44.814Z,17.50
2022-08-22T01:57:14.689Z,18.50
2022-08-22T01:59:47.524Z,16.10
2022-08-22T02:02:33.742Z,18.50
2022-08-22T02:05:07.910Z,16.40
2022-08-22T02:07:50.063Z,18.50
2022-08-22T02:10:26.907Z,23.60
2022-08-22T02:13:07.776Z,23.60
2022-08-22T02:15:48.310Z,18.50
2022-08-22T02:18:26.143Z,18.50
2022-08-22T02:21:04.048Z,17.70
2022-08-22T02:23:47.294Z,18.40
2022-08-22T02:26:21.625Z,18.40
2022-08-22T02:28:59.003Z,18.40
2022-08-22T02:31:40.329Z,18.40
2022-08-22T02:34:37.279Z,18.40
2022-08-22T02:37:14.260Z,23.20
2022-08-22T02:39:52.033Z,18.40
2022-08-22T02:42:28.330Z,18.40
2022-08-22T02:45:04.332Z,18.40
2022-08-22T02:47:42.434Z,18.40
2022-08-22T02:50:21.233Z,18.40
2022-08-22T02:53:02.735Z,18.40
2022-08-22T02:55:42.175Z,18.40
2022-08-22T02:58:21.685Z,18.40
2022-08-22T03:00:53.189Z,18.30
2022-08-22T03:03:27.458Z,18.30
2022-08-22T03:06:04.322Z,15.60
2022-08-22T03:08:35.972Z,18.20
2022-08-22T03:11:20.683Z,18.00
2022-08-22T03:13:57.982Z,18.20
2022-08-22T03:16:35.410Z,17.80
2022-08-22T03:19:13.246Z,18.10
2022-08-22T03:21:54.720Z,18.10
2022-08-22T03:24:29.234Z,23.30
2022-08-22T03:27:07.656Z,18.00
2022-08-22T03:29:40.460Z,15.80
2022-08-22T03:32:14.069Z,16.60
2022-08-22T03:34:57.930Z,15.40
2022-08-22T03:37:37.766Z,17.80
2022-08-22T03:40:22.737Z,17.80
2022-08-22T03:43:18.907Z,17.80
2022-08-22T03:46:17.815Z,17.70
2022-08-22T03:49:09.626Z,17.70
2022-08-22T03:52:03.174Z,17.70
2022-08-22T03:54:57.722Z,22.90
2022-08-22T03:58:18.469Z,15.20
2022-08-22T04:01:21.959Z,17.60
2022-08-22T04:04:34.895Z,16.50
2022-08-22T04:07:31.436Z,17.50
2022-08-22T04:10:31.130Z,17.50
2022-08-22T04:13:25.026Z,17.40
2022-08-22T04:16:26.256Z,17.50
2022-08-22T04:19:13.403Z,17.40
2022-08-22T04:22:13.617Z,17.50
2022-08-22T04:24:59.672Z,17.50
2022-08-22T04:27:34.003Z,17.50
2022-08-22T04:30:10.581Z,17.60
2022-08-22T04:32:43.454Z,17.60
2022-08-22T04:35:18.814Z,17.50
2022-08-22T04:37:52.351Z,17.50
2022-08-22T04:40:25.423Z,17.50
2022-08-22T04:42:58.216Z,14.90
2022-08-22T04:45:33.701Z,17.50
2022-08-22T04:48:09.021Z,17.40
2022-08-22T04:50:44.446Z,15.30
2022-08-22T04:53:26.595Z,15.00
2022-08-22T04:56:08.505Z,15.60
2022-08-22T04:58:56.357Z,17.60
2022-08-22T05:01:38.317Z,17.60
2022-08-22T05:04:09.495Z,17.60
2022-08-22T05:06:42.580Z,17.50
2022-08-22T05:09:16.313Z,17.60
2022-08-22T05:14:19.134Z,16.40
2022-08-22T05:16:53.896Z,22.70
2022-08-22T05:19:31.896Z,15.70
2022-08-22T05:22:00.866Z,15.90
2022-08-22T05:24:34.090Z,22.50
2022-08-22T05:27:11.189Z,15.50
2022-08-22T05:29:41.788Z,17.60
2022-08-22T05:32:18.047Z,17.60
2022-08-22T05:34:47.936Z,22.80
2022-08-22T05:37:23.529Z,17.60
2022-08-22T05:39:57.535Z,17.70
2022-08-22T05:42:30.822Z,17.70
2022-08-22T05:47:41.062Z,17.70
2022-08-22T05:50:14.466Z,17.80
2022-08-22T05:52:51.998Z,17.80
2022-08-22T05:55:26.528Z,17.80
2022-08-22T05:58:17.965Z,17.80
2022-08-22T06:00:52.104Z,17.80
2022-08-22T06:03:29.126Z,17.80
2022-08-22T06:06:00.655Z,17.10
2022-08-22T06:08:34.592Z,17.90
2022-08-22T06:11:08.057Z,17.90
2022-08-22T06:13:41.387Z,17.90
2022-08-22T06:16:16.908Z,18.10
2022-08-22T06:18:46.904Z,18.00
2022-08-22T06:21:21.749Z,17.90
2022-08-22T06:23:54.227Z,18.00
2022-08-22T06:26:22.550Z,17.20
2022-08-22T06:28:55.676Z,18.10
2022-08-22T06:31:28.147Z,18.20
2022-08-22T06:34:05.757Z,23.40
2022-08-22T06:36:36.259Z,18.30
2022-08-22T06:39:15.933Z,18.30
2022-08-22T06:41:50.941Z,23.40
2022-08-22T06:44:23.219Z,18.40
2022-08-22T06:46:56.299Z,18.40
2022-08-22T06:49:27.716Z,18.40
2022-08-22T06:52:01.023Z,18.50
2022-08-22T06:54:34.485Z,18.50
2022-08-22T06:57:04.925Z,17.20
2022-08-22T06:59:38.251Z,18.60
2022-08-22T07:02:16.624Z,17.60
2022-08-22T07:04:48.832Z,18.70
2022-08-22T07:07:19.739Z,18.80
2022-08-22T07:09:55.303Z,18.90
2022-08-22T07:12:27.122Z,18.90
2022-08-22T07:14:59.433Z,17.90
2022-08-22T07:17:30.639Z,19.00
2022-08-22T07:20:05.044Z,19.10
2022-08-22T07:22:36.580Z,17.90
2022-08-22T07:25:11.116Z,17.10
2022-08-22T07:27:51.830Z,19.30
2022-08-22T07:30:28.232Z,19.30
2022-08-22T07:33:25.817Z,19.40
2022-08-22T07:35:59.679Z,19.50
2022-08-22T07:38:35.816Z,19.50
2022-08-22T07:41:14.030Z,19.00
2022-08-22T07:43:47.043Z,19.70
2022-08-22T07:46:27.491Z,19.70
2022-08-22T07:49:09.058Z,18.10
2022-08-22T07:51:44.295Z,19.80
2022-08-22T07:54:14.989Z,17.90
2022-08-22T07:56:46.622Z,19.90
2022-08-22T07:59:18.114Z,20.00
2022-08-22T08:01:49.746Z,20.00
2022-08-22T08:04:23.280Z,20.10
2022-08-22T08:06:57.103Z,20.20
2022-08-22T08:09:28.799Z,20.20
2022-08-22T08:14:27.904Z,20.30
2022-08-22T08:17:03.231Z,18.10
2022-08-22T08:19:34.436Z,20.50
2022-08-22T08:22:04.885Z,20.40
2022-08-22T08:24:40.334Z,20.50
2022-08-22T08:27:33.057Z,20.50
2022-08-22T08:30:04.679Z,20.60
2022-08-22T08:32:37.331Z,19.40
2022-08-22T08:35:09.120Z,20.80
2022-08-22T08:37:46.485Z,20.90
2022-08-22T08:40:27.401Z,21.00
2022-08-22T08:43:31.355Z,21.20
2022-08-22T08:46:38.765Z,20.10
2022-08-22T08:49:42.115Z,21.70
2022-08-22T08:52:52.177Z,21.90
2022-08-22T08:55:31.977Z,22.20
2022-08-22T08:58:26.624Z,22.30
2022-08-22T09:01:06.806Z,22.50
2022-08-22T09:04:06.937Z,22.50
2022-08-22T09:07:07.995Z,22.60
2022-08-22T09:09:57.322Z,22.70
2022-08-22T09:12:56.017Z,22.70
2022-08-22T09:15:38.929Z,23.00
2022-08-22T09:18:38.125Z,23.20
2022-08-22T09:21:31.359Z,22.10
2022-08-22T09:24:35.090Z,23.30
2022-08-22T09:27:10.203Z,23.30
2022-08-22T09:29:54.724Z,23.30
2022-08-22T09:32:36.151Z,21.90
2022-08-22T09:35:09.345Z,23.30
2022-08-22T09:37:48.669Z,23.30
2022-08-22T09:43:07.270Z,23.30
2022-08-22T09:45:50.107Z,22.20
2022-08-22T09:48:44.117Z,23.40
2022-08-22T09:51:31.615Z,23.50
2022-08-22T09:54:31.614Z,28.20
2022-08-22T09:57:22.513Z,23.90
2022-08-22T10:00:15.738Z,24.20
2022-08-22T10:02:52.428Z,24.50
2022-08-22T10:05:39.513Z,29.40
2022-08-22T10:08:40.371Z,23.90
2022-08-22T10:11:23.792Z,25.20
2022-08-22T10:14:01.291Z,25.40
2022-08-22T10:17:05.562Z,24.30
2022-08-22T10:19:41.524Z,25.80
2022-08-22T10:22:31.672Z,25.80
2022-08-22T10:25:29.084Z,25.90
2022-08-22T10:28:12.011Z,25.90
2022-08-22T10:30:52.393Z,25.90
2022-08-22T10:33:29.193Z,26.00
2022-08-22T10:36:04.997Z,26.10
2022-08-22T10:38:44.244Z,24.70
2022-08-22T10:41:25.965Z,26.00
2022-08-22T10:44:04.116Z,26.40
2022-08-22T10:46:42.971Z,25.10
2022-08-22T10:49:20.624Z,25.50
2022-08-22T10:51:56.842Z,25.20
2022-08-22T10:54:47.360Z,25.10
2022-08-22T10:57:39.752Z,31.20
2022-08-22T11:00:15.134Z,27.10
2022-08-22T11:02:53.646Z,31.50
2022-08-22T11:05:35.306Z,25.40
2022-08-22T11:08:22.145Z,25.20
2022-08-22T11:11:17.784Z,26.00
2022-08-22T11:13:59.773Z,30.80
2022-08-22T11:16:45.603Z,27.50
2022-08-22T11:19:28.581Z,25.30
2022-08-22T11:22:10.165Z,27.50
2022-08-22T11:25:04.778Z,26.30
2022-08-22T11:27:44.343Z,27.60
2022-08-22T11:30:18.743Z,27.70
2022-08-22T11:33:17.787Z,25.60
2022-08-22T11:35:55.989Z,27.70
2022-08-22T11:38:36.210Z,26.20
2022-08-22T11:41:11.096Z,27.90
2022-08-22T11:43:51.850Z,28.00
2022-08-22T11:46:29.271Z,26.40
2022-08-22T11:49:32.731Z,26.40
2022-08-22T11:52:13.746Z,26.90
2022-08-22T11:54:58.696Z,28.00
2022-08-22T11:57:34.017Z,28.20
2022-08-22T12:00:16.900Z,27.90
2022-08-22T12:03:02.292Z,27.50
2022-08-22T12:05:34.522Z,28.20
2022-08-22T12:08:11.412Z,26.30
2022-08-22T12:10:49.054Z,29.10
2022-08-22T12:13:34.938Z,28.40
2022-08-22T12:16:12.767Z,28.50
2022-08-22T12:18:52.839Z,26.50
2022-08-22T12:21:49.613Z,28.90
2022-08-22T12:24:46.003Z,26.70
2022-08-22T12:27:40.808Z,29.10
2022-08-22T12:30:22.763Z,29.10
2022-08-22T12:33:13.136Z,28.40
2022-08-22T12:35:54.884Z,29.10
2022-08-22T12:38:39.940Z,29.10
2022-08-22T12:41:38.339Z,28.00
2022-08-22T12:44:24.341Z,26.80
2022-08-22T12:47:06.531Z,28.90
2022-08-22T12:49:52.555Z,28.80
2022-08-22T12:52:35.638Z,28.80
2022-08-22T12:55:37.805Z,27.50
2022-08-22T12:58:15.318Z,28.70
2022-08-22T13:00:49.609Z,28.70
2022-08-22T13:03:27.299Z,28.70
2022-08-22T13:06:00.572Z,27.30
2022-08-22T13:08:32.141Z,27.90
2022-08-22T13:11:09.850Z,28.70
2022-08-22T13:13:56.155Z,28.70
2022-08-22T13:16:36.509Z,28.50
2022-08-22T13:19:13.481Z,28.40
2022-08-22T13:21:48.895Z,26.60
2022-08-22T13:24:38.894Z,28.20
2022-08-22T13:27:15.364Z,28.20
2022-08-22T13:29:49.280Z,28.20
2022-08-22T13:32:26.428Z,28.10
2022-08-22T13:34:57.796Z,27.80
2022-08-22T13:37:32.443Z,27.80
2022-08-22T13:40:05.284Z,28.10
2022-08-22T13:42:40.161Z,26.50
2022-08-22T13:45:16.396Z,26.50
2022-08-22T13:47:54.912Z,27.20
2022-08-22T13:50:25.925Z,28.10
2022-08-22T13:53:02.262Z,27.20
2022-08-22T13:55:36.163Z,28.00
2022-08-22T13:58:13.942Z,27.90
2022-08-22T14:01:25.241Z,27.80
2022-08-22T14:03:59.994Z,27.70
2022-08-22T14:06:37.899Z,27.60
2022-08-22T14:09:31.279Z,25.80
2022-08-22T14:12:12.772Z,27.40
2022-08-22T14:14:45.863Z,27.20
2022-08-22T14:17:17.597Z,26.70
2022-08-22T14:19:59.301Z,27.50
2022-08-22T14:22:35.170Z,27.50
2022-08-22T14:25:07.645Z,27.50
2022-08-22T14:27:39.664Z,27.60
2022-08-22T14:30:15.381Z,27.30
2022-08-22T14:32:48.253Z,27.20
2022-08-22T14:35:29.202Z,27.10
2022-08-22T14:38:27.171Z,27.40
2022-08-22T14:41:00.514Z,27.50
2022-08-22T14:43:50.561Z,26.10
2022-08-22T14:46:26.721Z,26.50
2022-08-22T14:49:29.861Z,25.90
2022-08-22T14:52:05.307Z,26.50
2022-08-22T14:54:34.453Z,26.00
2022-08-22T14:57:05.043Z,27.50
2022-08-22T14:59:50.084Z,27.50
2022-08-22T15:02:26.244Z,27.50
2022-08-22T15:04:56.037Z,26.10
2022-08-22T15:07:29.182Z,25.60
2022-08-22T15:10:03.506Z,25.70
2022-08-22T15:12:36.513Z,27.40
2022-08-22T15:15:11.305Z,27.40
2022-08-22T15:17:45.681Z,27.40
2022-08-22T15:20:31.307Z,26.00
2022-08-22T15:23:09.704Z,27.40
2022-08-22T15:25:42.179Z,25.90
2022-08-22T15:28:22.582Z,27.10
2022-08-22T15:31:03.447Z,26.00
2022-08-22T15:33:34.653Z,27.30
2022-08-22T15:36:15.657Z,27.30
2022-08-22T15:38:48.086Z,26.20
2022-08-22T15:41:46.717Z,27.20
2022-08-22T15:44:32.183Z,27.20
2022-08-22T15:47:11.827Z,26.70
2022-08-22T15:49:52.421Z,26.20
2022-08-22T15:52:28.472Z,25.90
2022-08-22T15:55:22.037Z,26.50
2022-08-22T15:58:02.486Z,25.80
2022-08-22T16:00:43.369Z,25.30
2022-08-22T16:03:24.836Z,27.00
2022-08-22T16:05:56.066Z,26.90
2022-08-22T16:08:32.690Z,25.70
2022-08-22T16:11:28.437Z,25.40
2022-08-22T16:14:21.369Z,25.70
2022-08-22T16:17:03.173Z,30.30
2022-08-22T16:19:33.376Z,25.90
2022-08-22T16:22:19.456Z,25.30
2022-08-22T16:25:03.415Z,24.70
2022-08-22T16:27:33.967Z,26.50
2022-08-22T16:30:17.016Z,25.50
2022-08-22T16:32:57.248Z,26.30
2022-08-22T16:36:02.755Z,24.60
2022-08-22T16:38:41.186Z,26.50
2022-08-22T16:41:25.678Z,24.70
2022-08-22T16:44:18.522Z,26.30
2022-08-22T16:46:48.546Z,25.60
2022-08-22T16:49:27.577Z,26.30
2022-08-22T16:52:35.148Z,24.40
2022-08-22T16:55:05.982Z,26.20
2022-08-22T16:58:05.001Z,24.20
2022-08-22T17:00:45.337Z,26.00
2022-08-22T17:03:26.289Z,29.80
2022-08-22T17:06:15.810Z,25.20
2022-08-22T17:08:58.320Z,25.00
2022-08-22T17:11:39.658Z,28.70
2022-08-22T17:14:25.376Z,25.70
2022-08-22T17:17:13.597Z,25.60
2022-08-22T17:19:55.812Z,25.60
2022-08-22T17:22:31.356Z,24.90
2022-08-22T17:25:17.028Z,24.80
2022-08-22T17:27:51.474Z,24.70
2022-08-22T17:30:24.545Z,24.80
2022-08-22T17:33:12.124Z,24.90
2022-08-22T17:36:04.684Z,25.40
2022-08-22T17:38:47.343Z,25.30
2022-08-22T17:41:27.613Z,25.30
2022-08-22T17:44:08.898Z,25.20
2022-08-22T17:46:45.742Z,24.90
2022-08-22T17:49:31.125Z,25.10
2022-08-22T17:52:07.436Z,25.00
2022-08-22T17:54:41.579Z,24.90
2022-08-22T17:57:14.486Z,24.90
2022-08-22T17:59:50.649Z,24.80
2022-08-22T18:02:24.126Z,24.70
2022-08-22T18:05:02.978Z,24.70
2022-08-22T18:07:45.922Z,24.60
2022-08-22T18:10:23.166Z,24.50
2022-08-22T18:13:03.485Z,24.50
2022-08-22T18:15:42.069Z,22.90
2022-08-22T18:18:19.960Z,24.40
2022-08-22T18:20:57.914Z,24.30
2022-08-22T18:23:40.342Z,24.30
2022-08-22T18:26:20.551Z,24.20
2022-08-22T18:28:54.281Z,24.20
2022-08-22T18:31:39.102Z,24.20
2022-08-22T18:34:16.906Z,24.10
2022-08-22T18:36:55.633Z,23.70
2022-08-22T18:39:29.035Z,24.00
2022-08-22T18:42:05.079Z,24.00
2022-08-22T18:44:38.997Z,23.90
2022-08-22T18:47:16.512Z,23.60
2022-08-22T18:49:48.398Z,23.70
2022-08-22T18:52:33.905Z,23.70
2022-08-22T18:55:27.067Z,23.70
2022-08-22T18:58:28.822Z,23.60
2022-08-22T19:01:10.243Z,23.50
2022-08-22T19:03:53.240Z,23.40
2022-08-22T19:06:48.389Z,23.40
2022-08-22T19:09:42.491Z,23.30
2022-08-22T19:12:31.418Z,23.30
2022-08-22T19:15:23.800Z,27.90
2022-08-22T19:18:19.780Z,23.20
2022-08-22T19:21:37.870Z,23.20
2022-08-22T19:24:10.832Z,23.20
2022-08-22T19:26:44.427Z,23.10
2022-08-22T19:29:49.999Z,23.10
2022-08-22T19:32:51.171Z,23.00
2022-08-22T19:35:22.235Z,23.00
2022-08-22T19:37:54.860Z,22.90
2022-08-22T19:40:49.319Z,22.80
2022-08-22T19:43:40.966Z,22.10
2022-08-22T19:46:12.681Z,22.80
2022-08-22T19:48:47.583Z,21.90
2022-08-22T19:51:28.130Z,22.70
2022-08-22T19:54:16.997Z,22.60
2022-08-22T19:56:59.585Z,22.50
2022-08-22T19:59:46.770Z,22.50
2022-08-22T20:02:31.857Z,20.90
2022-08-22T20:05:18.453Z,20.60
2022-08-22T20:08:00.514Z,22.50
2022-08-22T20:10:35.385Z,21.70
2022-08-22T20:13:08.530Z,22.40
2022-08-22T20:16:02.126Z,20.80
2022-08-22T20:19:02.003Z,22.20
2022-08-22T20:21:58.075Z,21.40
2022-08-22T20:24:39.110Z,22.30
2022-08-22T20:27:15.360Z,22.20
2022-08-22T20:29:51.078Z,22.30
2022-08-22T20:32:24.145Z,20.00
2022-08-22T20:34:57.940Z,20.30
2022-08-22T20:38:02.763Z,20.00
2022-08-22T20:40:53.522Z,22.20
2022-08-22T20:43:28.349Z,22.10
2022-08-22T20:46:13.273Z,22.10
2022-08-22T20:48:45.751Z,21.90
2022-08-22T20:51:17.338Z,22.00
2022-08-22T20:53:52.767Z,21.90
2022-08-22T20:56:37.123Z,21.90
2022-08-22T20:59:25.730Z,22.00
2022-08-22T21:01:58.116Z,21.70
2022-08-22T21:04:33.570Z,21.70
2022-08-22T21:07:03.204Z,21.70
2022-08-22T21:14:47.149Z,21.60
2022-08-22T21:17:21.604Z,21.50
2022-08-22T21:19:51.673Z,21.50
2022-08-22T21:22:25.725Z,21.50
2022-08-22T21:24:57.135Z,21.50
2022-08-22T21:27:28.550Z,21.50
2022-08-22T21:32:34.734Z,21.40
2022-08-22T21:35:06.012Z,21.30
2022-08-22T21:37:40.449Z,20.50
2022-08-22T21:40:16.960Z,21.30
2022-08-22T21:42:59.055Z,21.30
2022-08-22T21:45:29.481Z,19.00
2022-08-22T21:50:34.702Z,21.10
2022-08-22T21:53:10.342Z,21.00
2022-08-22T21:55:42.934Z,21.00
2022-08-22T21:58:36.001Z,20.10
2022-08-22T22:01:30.059Z,20.90
2022-08-22T22:03:59.451Z,20.90
2022-08-22T22:06:28.885Z,20.90
2022-08-22T22:11:25.660Z,20.10
2022-08-22T22:16:26.556Z,20.70
2022-08-22T22:21:23.214Z,20.60
2022-08-22T22:23:52.711Z,20.60
2022-08-22T22:26:21.411Z,20.60
2022-08-22T22:31:19.240Z,20.50
2022-08-22T22:36:19.210Z,20.40
2022-08-22T22:41:19.167Z,20.30
2022-08-22T22:48:44.124Z,19.90
2022-08-22T22:51:13.581Z,20.20
2022-08-22T22:56:15.847Z,20.20
2022-08-22T22:58:47.507Z,20.10
2022-08-22T23:01:18.436Z,20.10
2022-08-22T23:06:18.286Z,20.10
2022-08-22T23:08:47.303Z,20.00
2022-08-22T23:11:18.578Z,20.00
2022-08-22T23:13:49.162Z,20.00
2022-08-22T23:16:19.590Z,19.90
2022-08-22T23:18:48.091Z,18.00
2022-08-22T23:21:19.209Z,19.90
2022-08-22T23:31:17.925Z,19.70
2022-08-22T23:33:46.632Z,19.70
2022-08-22T23:36:17.780Z,19.70
2022-08-22T23:38:46.984Z,19.60
2022-08-22T23:41:17.909Z,19.60
2022-08-22T23:43:49.089Z,19.50
2022-08-22T23:46:20.705Z,19.50
2022-08-22T23:48:48.885Z,17.40
2022-08-22T23:51:23.095Z,19.40
2022-08-22T23:56:22.638Z,19.30
2022-08-22T23:58:53.162Z,17.10
